Time;durP1;ratioP1;P1;durP2;ratioP2;P2;SDS_P1;SDS_P2;PMS_P1;PMS_P2;Temp;Humidity;BMP_temperature;BMP_pressure;BME280_temperature;BME280_humidity;BME280_pressure;Samples;Min_cycle;Max_cycle;Signal;HPM_P1;HPM_P2
2023/07/29 00:02:18;;;;;;;5.00;3.40;;;;;;;;;;6275745;28;20201;-63
2023/07/29 00:05:19;;;;;;;3.73;3.27;;;;;;;;;;6244677;28;20243;-63
2023/07/29 00:08:20;;;;;;;3.77;2.97;;;;;;;;;;6248276;28;20194;-63
2023/07/29 00:11:21;;;;;;;4.00;3.37;;;;;;;;;;6247077;28;20190;-63
2023/07/29 00:14:22;;;;;;;3.93;3.53;;;;;;;;;;6272176;28;20193;-63
2023/07/29 00:17:23;;;;;;;3.33;3.03;;;;;;;;;;6250413;28;20194;-63
2023/07/29 00:20:24;;;;;;;3.90;3.50;;;;;;;;;;6269455;28;20186;-63
2023/07/29 00:23:25;;;;;;;3.83;3.17;;;;;;;;;;6246022;28;20194;-63
2023/07/29 00:26:28;;;;;;;3.60;3.00;;;;;;;;;;6254086;28;20267;-63
2023/07/29 00:29:29;;;;;;;4.53;3.30;;;;;;;;;;6251714;28;20265;-63
2023/07/29 00:32:31;;;;;;;5.20;3.20;;;;;;;;;;6255744;28;20215;-63
2023/07/29 00:35:32;;;;;;;4.40;3.30;;;;;;;;;;6271986;28;20228;-63
2023/07/29 00:38:33;;;;;;;4.93;3.37;;;;;;;;;;6255025;28;20224;-63
2023/07/29 00:41:34;;;;;;;3.83;3.07;;;;;;;;;;6255080;28;20247;-63
2023/07/29 00:44:35;;;;;;;5.30;3.10;;;;;;;;;;6252549;28;20197;-63
2023/07/29 00:47:36;;;;;;;3.43;2.90;;;;;;;;;;6270977;28;20189;-63
2023/07/29 00:50:37;;;;;;;6.03;3.20;;;;;;;;;;6247870;28;20201;-63
2023/07/29 00:53:38;;;;;;;4.43;3.00;;;;;;;;;;6277969;28;20356;-63
2023/07/29 00:56:40;;;;;;;5.17;3.13;;;;;;;;;;6269566;28;20201;-63
2023/07/29 00:59:41;;;;;;;3.50;3.00;;;;;;;;;;6251734;28;20247;-63
2023/07/29 01:02:43;;;;;;;3.07;2.77;;;;;;;;;;6267492;28;20215;-63
2023/07/29 01:05:56;;;;;;;3.30;3.00;;;;;;;;;;6255380;28;20193;-63
2023/07/29 01:08:57;;;;;;;3.47;3.03;;;;;;;;;;6261739;28;20188;-63
2023/07/29 01:12:06;;;;;;;3.17;2.87;;;;;;;;;;6248877;28;20206;-63
2023/07/29 01:15:27;;;;;;;3.63;3.33;;;;;;;;;;6270846;28;20264;-63
2023/07/29 01:18:32;;;;;;;8.23;3.43;;;;;;;;;;6265905;28;20187;-63
2023/07/29 01:21:36;;;;;;;4.67;3.10;;;;;;;;;;6248327;28;20256;-63
2023/07/29 01:24:37;;;;;;;3.60;3.30;;;;;;;;;;6247424;28;20191;-63
2023/07/29 01:27:38;;;;;;;5.80;3.10;;;;;;;;;;6253476;28;20200;-63
2023/07/29 01:30:41;;;;;;;3.77;2.93;;;;;;;;;;6247061;28;20241;-63
2023/07/29 01:33:49;;;;;;;4.60;3.40;;;;;;;;;;6268513;28;20249;-63
2023/07/29 01:36:51;;;;;;;5.77;3.40;;;;;;;;;;6261667;28;20182;-63
2023/07/29 01:39:54;;;;;;;4.10;2.67;;;;;;;;;;6249274;28;20190;-63
2023/07/29 01:42:56;;;;;;;3.67;3.30;;;;;;;;;;6254239;28;20186;-62
2023/07/29 01:45:57;;;;;;;4.70;3.30;;;;;;;;;;6269511;28;20266;-64
2023/07/29 01:48:58;;;;;;;5.70;3.80;;;;;;;;;;6263592;28;20198;-63
2023/07/29 01:51:59;;;;;;;5.00;3.27;;;;;;;;;;6245615;28;20206;-63
2023/07/29 01:55:00;;;;;;;5.00;3.80;;;;;;;;;;6251151;28;20190;-63
2023/07/29 01:58:01;;;;;;;3.33;3.03;;;;;;;;;;6259189;28;20273;-63
2023/07/29 02:01:02;;;;;;;4.17;3.10;;;;;;;;;;6244677;28;20269;-63
2023/07/29 02:04:03;;;;;;;4.20;3.13;;;;;;;;;;6265093;28;20198;-63
2023/07/29 02:07:04;;;;;;;5.57;3.43;;;;;;;;;;6268692;28;20187;-63
2023/07/29 02:10:06;;;;;;;5.83;3.57;;;;;;;;;;6238577;28;20199;-63
2023/07/29 02:13:07;;;;;;;3.73;3.07;;;;;;;;;;6264242;28;20214;-63
2023/07/29 02:16:08;;;;;;;3.93;3.07;;;;;;;;;;6262869;28;20189;-63
2023/07/29 02:19:09;;;;;;;4.10;3.07;;;;;;;;;;6264727;28;20222;-63
2023/07/29 02:22:11;;;;;;;4.57;3.40;;;;;;;;;;6258557;28;20200;-63
2023/07/29 02:25:12;;;;;;;6.00;3.67;;;;;;;;;;6255508;28;20193;-63
2023/07/29 02:28:14;;;;;;;6.67;3.30;;;;;;;;;;6249162;28;20201;-63
2023/07/29 02:31:16;;;;;;;3.70;3.40;;;;;;;;;;6253729;28;20277;-63
2023/07/29 02:34:17;;;;;;;3.93;3.50;;;;;;;;;;6263748;28;20206;-63
2023/07/29 02:37:18;;;;;;;8.13;3.17;;;;;;;;;;6249927;28;20186;-63
2023/07/29 02:40:20;;;;;;;5.20;3.37;;;;;;;;;;6244322;28;20190;-63
2023/07/29 02:43:21;;;;;;;3.87;3.47;;;;;;;;;;6246721;28;20182;-63
2023/07/29 02:46:23;;;;;;;4.67;3.53;;;;;;;;;;6253031;28;20263;-63
2023/07/29 02:49:24;;;;;;;4.13;3.43;;;;;;;;;;6264176;28;20204;-63
2023/07/29 02:52:25;;;;;;;4.90;3.00;;;;;;;;;;6253893;28;20210;-63
2023/07/29 02:55:27;;;;;;;3.80;3.37;;;;;;;;;;6251024;28;20194;-63
2023/07/29 02:58:28;;;;;;;3.67;3.37;;;;;;;;;;6251977;28;20178;-63
2023/07/29 03:01:29;;;;;;;3.57;3.23;;;;;;;;;;6252330;28;20268;-63
2023/07/29 03:04:30;;;;;;;4.97;3.17;;;;;;;;;;6251585;28;20189;-63
2023/07/29 03:07:31;;;;;;;3.43;3.13;;;;;;;;;;6252379;28;20622;-63
2023/07/29 03:10:32;;;;;;;5.27;3.80;;;;;;;;;;6265071;28;20197;-63
2023/07/29 03:13:33;;;;;;;4.63;3.70;;;;;;;;;;6262545;28;20209;-63
2023/07/29 03:16:34;;;;;;;3.40;3.10;;;;;;;;;;6259054;28;20233;-63
2023/07/29 03:19:35;;;;;;;3.40;3.10;;;;;;;;;;6272221;28;20186;-63
2023/07/29 03:22:36;;;;;;;3.50;3.07;;;;;;;;;;6261474;28;20227;-63
2023/07/29 03:25:37;;;;;;;5.20;3.47;;;;;;;;;;6248883;28;20197;-63
2023/07/29 03:28:39;;;;;;;3.77;3.47;;;;;;;;;;6251894;28;20194;-63
2023/07/29 03:31:40;;;;;;;3.40;3.10;;;;;;;;;;6250750;28;20372;-63
2023/07/29 03:34:42;;;;;;;3.87;3.43;;;;;;;;;;6248999;28;20200;-63
2023/07/29 03:37:43;;;;;;;4.30;3.30;;;;;;;;;;6247824;28;20262;-63
2023/07/29 03:40:44;;;;;;;4.00;3.60;;;;;;;;;;6242727;28;20187;-63
2023/07/29 03:43:45;;;;;;;4.20;3.70;;;;;;;;;;6247328;28;20278;-63
2023/07/29 03:46:46;;;;;;;5.03;3.47;;;;;;;;;;6243397;28;20194;-63
2023/07/29 03:49:47;;;;;;;4.37;3.23;;;;;;;;;;6236436;28;20239;-63
2023/07/29 03:52:48;;;;;;;4.00;3.63;;;;;;;;;;6253889;28;20300;-63
2023/07/29 03:55:50;;;;;;;7.97;3.73;;;;;;;;;;6241193;28;20248;-63
2023/07/29 03:58:51;;;;;;;4.10;3.70;;;;;;;;;;6257465;28;20241;-63
2023/07/29 04:01:52;;;;;;;4.03;3.67;;;;;;;;;;6255859;28;20201;-63
2023/07/29 04:04:53;;;;;;;3.70;3.30;;;;;;;;;;6244004;28;20194;-63
2023/07/29 04:07:54;;;;;;;3.63;3.33;;;;;;;;;;6241252;28;20290;-63
2023/07/29 04:10:55;;;;;;;4.13;3.30;;;;;;;;;;6247733;28;20194;-63
2023/07/29 04:13:56;;;;;;;4.90;3.33;;;;;;;;;;6244769;28;20206;-63
2023/07/29 04:16:58;;;;;;;4.13;3.73;;;;;;;;;;6267959;28;20191;-63
2023/07/29 04:19:59;;;;;;;4.17;3.77;;;;;;;;;;6282421;28;20333;-63
2023/07/29 04:23:00;;;;;;;4.07;3.30;;;;;;;;;;6247154;28;20226;-63
2023/07/29 04:26:01;;;;;;;3.43;3.13;;;;;;;;;;6262576;28;20190;-63
2023/07/29 04:29:02;;;;;;;4.10;3.70;;;;;;;;;;6261341;28;20196;-63
2023/07/29 04:32:03;;;;;;;4.03;3.20;;;;;;;;;;6272449;28;20221;-63
2023/07/29 04:35:04;;;;;;;3.80;3.50;;;;;;;;;;6244362;28;20229;-63
2023/07/29 04:38:05;;;;;;;3.87;3.50;;;;;;;;;;6259723;28;20193;-63
2023/07/29 04:41:08;;;;;;;4.47;3.50;;;;;;;;;;6255325;28;20281;-63
2023/07/29 04:44:09;;;;;;;4.33;3.13;;;;;;;;;;6245428;28;20199;-63
2023/07/29 04:47:11;;;;;;;6.07;3.33;;;;;;;;;;6276597;28;20198;-63
2023/07/29 04:50:12;;;;;;;3.67;3.37;;;;;;;;;;6254443;28;20186;-63
2023/07/29 04:53:13;;;;;;;5.10;3.70;;;;;;;;;;6245172;28;20257;-63
2023/07/29 04:56:14;;;;;;;4.60;3.83;;;;;;;;;;6248863;28;20280;-63
2023/07/29 04:59:15;;;;;;;5.73;4.00;;;;;;;;;;6262160;28;20195;-63
2023/07/29 05:02:16;;;;;;;4.33;3.63;;;;;;;;;;6249539;28;20202;-63
2023/07/29 05:05:17;;;;;;;4.10;3.60;;;;;;;;;;6253123;28;20198;-63
2023/07/29 05:08:18;;;;;;;4.07;3.67;;;;;;;;;;6273213;28;20198;-63
2023/07/29 05:11:19;;;;;;;3.60;3.27;;;;;;;;;;6265434;28;20193;-63
2023/07/29 05:14:20;;;;;;;3.57;3.27;;;;;;;;;;6247125;28;20339;-63
2023/07/29 05:17:22;;;;;;;3.57;3.27;;;;;;;;;;6247472;28;20232;-63
2023/07/29 05:20:23;;;;;;;4.37;3.97;;;;;;;;;;6265087;28;20290;-63
2023/07/29 05:23:24;;;;;;;5.70;3.80;;;;;;;;;;6274340;28;20187;-63
2023/07/29 05:26:25;;;;;;;3.60;3.30;;;;;;;;;;6270534;28;20196;-63
2023/07/29 05:29:26;;;;;;;5.83;3.40;;;;;;;;;;6276730;28;20240;-63
2023/07/29 05:32:27;;;;;;;3.83;3.40;;;;;;;;;;6250105;28;20217;-63
2023/07/29 05:35:28;;;;;;;4.77;4.23;;;;;;;;;;6246569;28;20274;-63
2023/07/29 05:38:29;;;;;;;4.13;3.67;;;;;;;;;;6248733;28;20282;-63
2023/07/29 05:41:31;;;;;;;4.80;4.20;;;;;;;;;;6231883;28;20202;-63
2023/07/29 05:44:32;;;;;;;4.30;3.90;;;;;;;;;;6244692;28;20194;-63
2023/07/29 05:47:33;;;;;;;4.83;3.70;;;;;;;;;;6267835;28;20222;-63
2023/07/29 05:50:34;;;;;;;3.87;3.40;;;;;;;;;;6273819;28;20185;-63
2023/07/29 05:53:35;;;;;;;4.80;3.97;;;;;;;;;;6251117;28;20249;-63
2023/07/29 05:56:36;;;;;;;5.53;3.73;;;;;;;;;;6249361;28;20181;-63
2023/07/29 05:59:37;;;;;;;6.07;4.07;;;;;;;;;;6252289;28;20190;-63
2023/07/29 06:02:39;;;;;;;4.50;3.70;;;;;;;;;;6245816;28;20198;-63
2023/07/29 06:05:40;;;;;;;4.70;3.63;;;;;;;;;;6250562;28;20259;-63
2023/07/29 06:08:41;;;;;;;4.67;3.80;;;;;;;;;;6267544;28;20197;-63
2023/07/29 06:11:42;;;;;;;5.03;4.47;;;;;;;;;;6246447;28;20217;-63
2023/07/29 06:14:43;;;;;;;4.10;3.27;;;;;;;;;;6238936;28;20196;-63
2023/07/29 06:17:44;;;;;;;6.13;4.40;;;;;;;;;;6241534;28;20218;-63
2023/07/29 06:20:45;;;;;;;5.73;4.23;;;;;;;;;;6254326;28;20255;-63
2023/07/29 06:23:47;;;;;;;4.63;3.93;;;;;;;;;;6254867;28;20202;-63
2023/07/29 06:26:48;;;;;;;5.00;3.90;;;;;;;;;;6247368;28;20205;-63
2023/07/29 06:29:49;;;;;;;3.97;3.57;;;;;;;;;;6281107;28;20371;-63
2023/07/29 06:32:50;;;;;;;3.93;3.53;;;;;;;;;;6253651;28;20247;-63
2023/07/29 06:35:51;;;;;;;4.87;4.10;;;;;;;;;;6250448;28;20268;-63
2023/07/29 06:38:52;;;;;;;5.27;3.83;;;;;;;;;;6246769;28;20186;-63
2023/07/29 06:41:53;;;;;;;3.67;3.13;;;;;;;;;;6239072;28;20203;-63
2023/07/29 06:44:54;;;;;;;4.10;3.70;;;;;;;;;;6236411;28;20292;-63
2023/07/29 06:47:55;;;;;;;3.70;3.40;;;;;;;;;;6229838;28;20200;-63
2023/07/29 06:51:00;;;;;;;6.00;4.10;;;;;;;;;;6257494;28;20287;-63
2023/07/29 06:54:01;;;;;;;4.73;3.90;;;;;;;;;;6266416;28;20206;-63
2023/07/29 06:57:03;;;;;;;5.97;3.80;;;;;;;;;;6238252;28;20226;-63
2023/07/29 07:00:04;;;;;;;4.57;3.80;;;;;;;;;;6239285;28;20196;-63
2023/07/29 07:03:05;;;;;;;5.33;3.90;;;;;;;;;;6245556;28;20198;-63
2023/07/29 07:06:06;;;;;;;4.40;4.00;;;;;;;;;;6246202;28;20199;-63
2023/07/29 07:09:07;;;;;;;4.73;3.97;;;;;;;;;;6265799;28;20190;-63
2023/07/29 07:12:08;;;;;;;6.47;3.87;;;;;;;;;;6250423;28;20214;-63
2023/07/29 07:15:09;;;;;;;4.43;4.03;;;;;;;;;;6254946;28;20186;-63
2023/07/29 07:18:10;;;;;;;4.80;3.37;;;;;;;;;;6245248;28;20190;-63
2023/07/29 07:21:11;;;;;;;4.03;3.50;;;;;;;;;;6238978;28;20190;-63
2023/07/29 07:24:12;;;;;;;5.70;3.93;;;;;;;;;;6245338;28;20194;-63
2023/07/29 07:27:13;;;;;;;4.00;3.60;;;;;;;;;;6240622;28;20198;-63
2023/07/29 07:30:14;;;;;;;4.60;3.57;;;;;;;;;;6248146;28;20240;-63
2023/07/29 07:33:16;;;;;;;3.73;3.33;;;;;;;;;;6256020;28;20206;-63
2023/07/29 07:36:17;;;;;;;3.57;3.27;;;;;;;;;;6281389;28;20189;-64
2023/07/29 07:39:18;;;;;;;3.90;3.60;;;;;;;;;;6262921;28;20189;-64
2023/07/29 07:42:19;;;;;;;3.57;3.27;;;;;;;;;;6249516;28;20189;-64
2023/07/29 07:45:20;;;;;;;4.23;3.60;;;;;;;;;;6236295;28;20189;-64
2023/07/29 07:48:21;;;;;;;4.23;3.83;;;;;;;;;;6249602;28;20274;-64
2023/07/29 07:51:22;;;;;;;4.53;3.93;;;;;;;;;;6252447;28;20241;-64
2023/07/29 07:54:23;;;;;;;4.37;3.93;;;;;;;;;;6252468;28;20224;-64
2023/07/29 07:57:24;;;;;;;4.37;3.97;;;;;;;;;;6245065;28;20262;-64
2023/07/29 08:00:25;;;;;;;3.60;3.30;;;;;;;;;;6238150;28;20190;-64
2023/07/29 08:03:26;;;;;;;4.77;3.80;;;;;;;;;;6250250;28;20186;-64
2023/07/29 08:06:27;;;;;;;4.00;3.60;;;;;;;;;;6263980;28;20197;-64
2023/07/29 08:09:28;;;;;;;3.73;3.37;;;;;;;;;;6253872;28;20182;-64
2023/07/29 08:12:29;;;;;;;4.13;3.40;;;;;;;;;;6268350;28;20208;-64
2023/07/29 08:15:30;;;;;;;4.33;3.53;;;;;;;;;;6256832;28;20182;-64
2023/07/29 08:18:31;;;;;;;4.10;3.20;;;;;;;;;;6242031;28;20236;-64
2023/07/29 08:21:32;;;;;;;3.23;2.93;;;;;;;;;;6257636;28;20219;-64
2023/07/29 08:24:34;;;;;;;6.90;3.77;;;;;;;;;;6249127;28;20205;-64
2023/07/29 08:27:35;;;;;;;3.50;3.17;;;;;;;;;;6251682;28;20224;-64
2023/07/29 08:30:36;;;;;;;2.97;2.77;;;;;;;;;;6254028;28;20236;-64
2023/07/29 08:33:37;;;;;;;3.30;3.00;;;;;;;;;;6266529;28;20242;-64
2023/07/29 08:36:38;;;;;;;3.80;3.23;;;;;;;;;;6255703;28;20185;-64
2023/07/29 08:39:39;;;;;;;3.53;3.13;;;;;;;;;;6249823;28;20214;-64
2023/07/29 08:42:42;;;;;;;3.40;3.00;;;;;;;;;;6243157;28;20276;-64
2023/07/29 08:45:44;;;;;;;3.43;3.13;;;;;;;;;;6260697;28;20209;-64
2023/07/29 08:48:46;;;;;;;4.10;2.87;;;;;;;;;;6266571;28;20198;-64
2023/07/29 08:51:48;;;;;;;3.60;3.30;;;;;;;;;;6260427;28;20258;-64
2023/07/29 08:54:49;;;;;;;3.97;3.07;;;;;;;;;;6244099;28;20196;-64
2023/07/29 08:57:50;;;;;;;4.30;3.03;;;;;;;;;;6239866;28;20187;-64
2023/07/29 09:00:51;;;;;;;3.73;3.13;;;;;;;;;;6260178;28;20194;-64
2023/07/29 09:03:52;;;;;;;3.73;3.43;;;;;;;;;;6240225;28;20196;-64
2023/07/29 09:06:54;;;;;;;3.30;3.00;;;;;;;;;;6255148;28;20272;-64
2023/07/29 09:09:55;;;;;;;3.37;2.93;;;;;;;;;;6258405;28;20198;-64
2023/07/29 09:12:56;;;;;;;3.57;3.27;;;;;;;;;;6237649;28;20226;-64
2023/07/29 09:15:58;;;;;;;3.30;3.00;;;;;;;;;;6253659;28;20200;-64
2023/07/29 09:19:01;;;;;;;4.37;3.10;;;;;;;;;;6250922;28;20214;-64
2023/07/29 09:22:03;;;;;;;3.33;3.03;;;;;;;;;;6258691;28;20194;-64
2023/07/29 09:25:04;;;;;;;3.43;3.13;;;;;;;;;;6248931;28;20248;-64
2023/07/29 09:28:12;;;;;;;2.60;2.40;;;;;;;;;;6269205;28;20194;-64
2023/07/29 09:31:23;;;;;;;4.30;3.07;;;;;;;;;;6250380;28;20321;-64
2023/07/29 09:34:24;;;;;;;3.27;2.97;;;;;;;;;;6259483;28;20210;-64
2023/07/29 09:37:25;;;;;;;3.63;3.33;;;;;;;;;;6251330;28;20187;-64
2023/07/29 09:40:26;;;;;;;3.53;2.73;;;;;;;;;;6246998;28;20248;-64
2023/07/29 09:43:31;;;;;;;4.63;3.07;;;;;;;;;;6244640;28;20186;-64
2023/07/29 09:46:34;;;;;;;2.83;2.53;;;;;;;;;;6259695;28;20257;-64
2023/07/29 09:49:38;;;;;;;2.83;2.63;;;;;;;;;;6256869;28;20197;-64
2023/07/29 09:52:39;;;;;;;3.17;2.87;;;;;;;;;;6255456;28;20237;-64
2023/07/29 09:55:40;;;;;;;2.67;2.47;;;;;;;;;;6246962;28;20286;-64
2023/07/29 09:58:43;;;;;;;3.13;2.83;;;;;;;;;;6245761;28;20210;-64
2023/07/29 10:01:44;;;;;;;2.70;2.50;;;;;;;;;;6255798;28;20252;-64
2023/07/29 10:04:46;;;;;;;2.70;2.50;;;;;;;;;;6248153;28;20200;-64
2023/07/29 10:07:48;;;;;;;2.83;2.63;;;;;;;;;;6251086;28;20192;-64
2023/07/29 10:10:50;;;;;;;2.53;2.33;;;;;;;;;;6260716;28;20183;-64
2023/07/29 10:13:52;;;;;;;3.10;2.90;;;;;;;;;;6261116;28;20229;-64
2023/07/29 10:16:53;;;;;;;4.80;2.73;;;;;;;;;;6265462;28;20209;-64
2023/07/29 10:19:54;;;;;;;3.53;2.97;;;;;;;;;;6247057;28;20248;-64
2023/07/29 10:22:56;;;;;;;3.17;2.87;;;;;;;;;;6264015;28;20198;-64
2023/07/29 10:26:06;;;;;;;3.70;2.70;;;;;;;;;;6268709;28;20235;-64
2023/07/29 10:29:08;;;;;;;3.83;2.73;;;;;;;;;;6266003;28;20187;-64
2023/07/29 10:32:10;;;;;;;2.93;2.63;;;;;;;;;;6248112;28;20232;-64
2023/07/29 10:35:12;;;;;;;2.80;2.60;;;;;;;;;;6247017;28;20193;-64
2023/07/29 10:38:14;;;;;;;3.90;2.80;;;;;;;;;;6252187;28;20217;-64
2023/07/29 10:41:15;;;;;;;3.03;2.83;;;;;;;;;;6245569;28;20206;-64
2023/07/29 10:44:35;;;;;;;4.17;2.90;;;;;;;;;;6234941;28;20259;-64
2023/07/29 10:47:36;;;;;;;2.70;2.50;;;;;;;;;;6259993;28;20182;-64
2023/07/29 10:50:37;;;;;;;3.03;2.73;;;;;;;;;;6264179;28;20227;-64
2023/07/29 10:53:38;;;;;;;3.20;2.90;;;;;;;;;;6239081;28;20215;-64
2023/07/29 10:56:43;;;;;;;5.10;2.87;;;;;;;;;;6274574;28;20197;-64
2023/07/29 10:59:55;;;;;;;2.57;2.37;;;;;;;;;;6255790;28;20217;-64
2023/07/29 11:03:04;;;;;;;2.87;2.67;;;;;;;;;;6255955;28;20206;-64
2023/07/29 11:06:05;;;;;;;3.10;2.80;;;;;;;;;;6262532;28;20213;-64
2023/07/29 11:09:44;;;;;;;3.67;2.93;;;23.50;64.70;;;;;;6259037;28;20286;-64
2023/07/29 11:12:47;;;;;;;2.93;2.67;;;25.30;57.20;;;;;;6259083;28;20209;-64
2023/07/29 11:15:50;;;;;;;2.67;2.47;;;25.30;57.50;;;;;;6246298;28;20190;-64
2023/07/29 11:18:51;;;;;;;3.30;2.47;;;25.30;58.70;;;;;;6266856;28;20185;-64
2023/07/29 11:21:53;;;;;;;2.90;2.63;;;25.30;59.20;;;;;;6236834;28;20197;-64
2023/07/29 11:24:54;;;;;;;3.13;2.60;;;25.30;62.00;;;;;;6251564;28;20293;-64
2023/07/29 11:27:56;;;;;;;2.70;2.50;;;25.40;61.60;;;;;;6250839;28;20182;-64
2023/07/29 11:30:57;;;;;;;2.70;2.50;;;25.60;63.80;;;;;;6262895;28;20234;-64
2023/07/29 11:33:59;;;;;;;2.90;2.70;;;25.60;61.90;;;;;;6267699;28;20198;-64
2023/07/29 11:37:00;;;;;;;2.53;2.33;;;25.80;62.60;;;;;;6259165;28;20221;-64
2023/07/29 11:40:02;;;;;;;4.07;2.73;;;;;;;;;;6247148;28;20191;-64
2023/07/29 11:43:03;;;;;;;3.80;2.37;;;;;;;;;;6273669;28;20241;-64
2023/07/29 11:46:04;;;;;;;2.47;2.00;;;;;;;;;;6266414;28;20194;-64
2023/07/29 11:49:05;;;;;;;2.43;2.23;;;25.80;61.30;;;;;;6243900;28;20223;-64
2023/07/29 11:52:10;;;;;;;2.50;2.30;;;26.50;55.00;;;;;;6263213;28;20214;-64
2023/07/29 11:55:12;;;;;;;2.50;2.30;;;26.60;56.90;;;;;;6252617;28;20197;-64
2023/07/29 11:58:15;;;;;;;2.67;2.47;;;26.70;57.40;;;;;;6254192;28;20189;-64
2023/07/29 12:01:16;;;;;;;2.70;2.50;;;26.90;57.00;;;;;;6248623;28;20198;-64
2023/07/29 12:04:17;;;;;;;3.87;2.47;;;27.20;57.10;;;;;;6242558;28;20197;-64
2023/07/29 12:07:18;;;;;;;3.50;3.07;;;27.50;55.60;;;;;;6233123;28;20262;-64
2023/07/29 12:10:21;;;;;;;2.63;2.43;;;28.00;56.80;;;;;;6267872;28;20303;-64
2023/07/29 12:13:25;;;;;;;2.60;2.27;;;28.90;53.30;;;;;;6254166;28;20225;-65
2023/07/29 12:16:26;;;;;;;2.53;2.33;;;;;;;;;;6271090;28;20182;-65
2023/07/29 12:19:35;;;;;;;2.80;2.50;;;30.10;51.70;;;;;;6258473;28;20281;-65
2023/07/29 12:22:36;;;;;;;2.57;2.37;;;30.10;51.40;;;;;;6257224;28;20191;-65
2023/07/29 12:25:37;;;;;;;2.30;2.10;;;30.50;49.50;;;;;;6255356;28;20194;-65
2023/07/29 12:28:38;;;;;;;3.30;2.30;;;30.50;49.80;;;;;;6240441;28;20202;-65
2023/07/29 12:31:39;;;;;;;2.87;2.37;;;30.50;49.10;;;;;;6249818;28;20233;-65
2023/07/29 12:34:40;;;;;;;2.50;2.30;;;;;;;;;;6261933;28;20195;-64
2023/07/29 12:37:43;;;;;;;2.50;2.30;;;30.10;50.00;;;;;;6270739;28;20181;-64
2023/07/29 12:40:44;;;;;;;2.30;2.10;;;30.00;50.10;;;;;;6274010;28;20194;-65
2023/07/29 12:43:45;;;;;;;2.93;2.20;;;30.20;51.00;;;;;;6268527;28;20205;-65
2023/07/29 12:46:46;;;;;;;3.50;2.73;;;30.10;51.30;;;;;;6256244;28;20236;-64
2023/07/29 12:49:47;;;;;;;2.57;2.37;;;;;;;;;;6253665;28;20256;-64
2023/07/29 12:52:47;;;;;;;2.17;2.07;;;29.50;48.00;;;;;;6274224;28;20272;-64
2023/07/29 12:55:48;;;;;;;2.50;2.30;;;;;;;;;;6247930;28;20288;-64
2023/07/29 12:58:49;;;;;;;2.77;2.57;;;;;;;;;;6240139;28;20197;-64
2023/07/29 13:01:50;;;;;;;2.80;2.60;;;;;;;;;;6262238;28;20189;-64
2023/07/29 13:04:51;;;;;;;3.40;2.67;;;;;;;;;;6252213;28;20194;-64
2023/07/29 13:07:52;;;;;;;3.13;2.83;;;;;;;;;;6241402;28;20190;-64
2023/07/29 13:10:54;;;;;;;2.37;2.17;;;;;;;;;;6249357;28;20202;-64
2023/07/29 13:13:54;;;;;;;7.30;3.23;;;27.50;56.00;;;;;;6235465;28;20231;-64
2023/07/29 13:16:55;;;;;;;4.47;2.90;;;;;;;;;;6264130;28;20190;-64
2023/07/29 13:19:56;;;;;;;3.37;2.30;;;;;;;;;;6258774;28;20197;-64
2023/07/29 13:22:57;;;;;;;2.70;2.50;;;;;;;;;;6254788;28;20208;-64
2023/07/29 13:25:58;;;;;;;2.77;2.57;;;;;;;;;;6267887;28;20323;-64
2023/07/29 13:28:59;;;;;;;2.87;2.33;;;;;;;;;;6258316;28;20186;-64
2023/07/29 13:32:00;;;;;;;2.90;2.50;;;;;;;;;;6275133;28;20236;-64
2023/07/29 13:35:01;;;;;;;3.27;2.40;;;;;;;;;;6262722;28;20188;-65
2023/07/29 13:38:03;;;;;;;2.70;2.50;;;;;;;;;;6277650;28;20194;-64
2023/07/29 13:41:04;;;;;;;3.27;2.97;;;;;;;;;;6265320;28;20185;-64
2023/07/29 13:44:05;;;;;;;2.60;2.40;;;;;;;;;;6245595;28;20209;-64
2023/07/29 13:47:06;;;;;;;2.73;2.53;;;;;;;;;;6266044;28;20222;-64
2023/07/29 13:50:08;;;;;;;2.63;2.43;;;26.70;65.30;;;;;;6247819;28;20194;-64
2023/07/29 13:53:08;;;;;;;2.70;2.50;;;27.80;77.50;;;;;;6254856;28;20255;-65
2023/07/29 13:56:09;;;;;;;3.03;2.83;;;28.10;73.00;;;;;;6265043;28;20251;-65
2023/07/29 13:59:10;;;;;;;2.60;2.40;;;28.50;68.60;;;;;;6229820;28;20289;-65
2023/07/29 14:02:10;;;;;;;2.60;2.40;;;28.80;68.30;;;;;;6263895;28;20194;-65
2023/07/29 14:05:11;;;;;;;2.80;2.60;;;28.90;65.20;;;;;;6247869;28;20198;-65
2023/07/29 14:08:12;;;;;;;3.27;2.97;;;29.00;63.80;;;;;;6263361;28;20274;-65
2023/07/29 14:11:13;;;;;;;3.20;2.90;;;29.00;65.70;;;;;;6263250;28;20198;-65
2023/07/29 14:14:13;;;;;;;2.60;2.40;;;29.10;66.70;;;;;;6245603;28;20222;-65
2023/07/29 14:17:14;;;;;;;3.00;2.80;;;29.10;66.50;;;;;;6252629;28;20256;-65
2023/07/29 14:20:15;;;;;;;2.90;2.70;;;28.90;65.70;;;;;;6266401;28;20202;-65
2023/07/29 14:23:15;;;;;;;2.70;2.50;;;28.60;65.30;;;;;;6246663;28;20232;-65
2023/07/29 14:26:16;;;;;;;2.57;2.27;;;;;;;;;;6245308;28;20202;-64
2023/07/29 14:29:17;;;;;;;2.93;2.60;;;;;;;;;;6257353;28;20306;-64
2023/07/29 14:32:18;;;;;;;3.03;2.77;;;;;;;;;;6253360;28;20225;-64
2023/07/29 14:35:19;;;;;;;3.03;2.70;;;;;;;;;;6245244;28;20183;-64
2023/07/29 14:38:20;;;;;;;3.07;2.87;;;;;;;;;;6245584;28;20202;-64
2023/07/29 14:41:21;;;;;;;3.60;3.30;;;;;;;;;;6263508;28;20201;-64
2023/07/29 14:44:22;;;;;;;3.00;2.80;;;;;;;;;;6263068;28;20190;-64
2023/07/29 14:47:23;;;;;;;3.43;2.80;;;;;;;;;;6250961;28;20205;-64
2023/07/29 14:50:24;;;;;;;2.60;2.40;;;;;;;;;;6265551;28;20280;-64
2023/07/29 14:53:25;;;;;;;3.37;3.07;;;;;;;;;;6244262;28;20289;-64
2023/07/29 14:56:26;;;;;;;3.10;2.90;;;;;;;;;;6245468;28;20382;-65
2023/07/29 14:59:28;;;;;;;3.67;3.07;;;;;;;;;;6239174;28;20274;-65
2023/07/29 15:02:31;;;;;;;3.60;3.27;;;;;;;;;;6274216;28;20204;-65
2023/07/29 15:05:32;;;;;;;3.07;2.77;;;;;;;;;;6246315;28;20205;-65
2023/07/29 15:08:33;;;;;;;3.40;2.90;;;;;;;;;;6266462;28;20190;-66
2023/07/29 15:11:34;;;;;;;3.27;2.67;;;;;;;;;;6247866;28;20190;-66
2023/07/29 15:14:35;;;;;;;2.70;2.50;;;;;;;;;;6274777;28;20259;-66
2023/07/29 15:17:36;;;;;;;2.70;2.50;;;;;;;;;;6252583;28;20191;-66
2023/07/29 15:20:37;;;;;;;3.70;3.07;;;;;;;;;;6250136;28;20200;-66
2023/07/29 15:23:38;;;;;;;3.70;2.70;;;;;;;;;;6255140;28;20200;-66
2023/07/29 15:26:40;;;;;;;2.40;2.30;;;28.10;70.10;;;;;;6252584;28;20280;-66
2023/07/29 15:29:40;;;;;;;2.93;2.73;;;29.10;63.90;;;;;;6266897;28;20257;-66
2023/07/29 15:32:42;;;;;;;2.83;2.63;;;29.10;63.20;;;;;;6252156;28;20217;-66
2023/07/29 15:35:42;;;;;;;3.03;2.73;;;29.10;63.50;;;;;;6251105;28;20190;-66
2023/07/29 15:38:43;;;;;;;2.87;2.67;;;29.10;62.90;;;;;;6235498;28;20208;-66
2023/07/29 15:41:44;;;;;;;2.47;2.27;;;29.10;62.00;;;;;;6257477;28;20186;-66
2023/07/29 15:44:44;;;;;;;2.87;2.40;;;29.10;61.50;;;;;;6264695;28;20204;-66
2023/07/29 15:47:45;;;;;;;3.90;2.80;;;29.00;62.30;;;;;;6228575;28;20593;-66
2023/07/29 15:50:46;;;;;;;3.23;2.60;;;29.00;61.20;;;;;;6245636;28;20257;-66
2023/07/29 15:53:46;;;;;;;3.20;2.90;;;29.00;62.00;;;;;;6248226;28;20214;-66
2023/07/29 15:56:47;;;;;;;2.73;2.53;;;29.00;62.20;;;;;;6262550;28;20232;-66
2023/07/29 15:59:48;;;;;;;2.80;2.60;;;;;;;;;;6251965;28;20185;-66
2023/07/29 16:02:49;;;;;;;2.80;2.60;;;;;;;;;;6244527;28;20202;-66
2023/07/29 16:05:50;;;;;;;3.40;3.00;;;;;;;;;;6251838;28;20190;-66
2023/07/29 16:08:51;;;;;;;3.07;2.53;;;;;;;;;;6252246;28;20213;-66
2023/07/29 16:11:52;;;;;;;2.87;2.67;;;;;;;;;;6241847;28;20194;-66
2023/07/29 16:14:53;;;;;;;3.50;2.40;;;;;;;;;;6252982;28;20200;-66
2023/07/29 16:17:55;;;;;;;2.70;2.50;;;;;;;;;;6237953;28;20190;-65
2023/07/29 16:21:01;;;;;;;3.17;2.53;;;;;;;;;;6262550;28;20213;-65
2023/07/29 16:24:03;;;;;;;2.80;2.60;;;;;;;;;;6265301;28;20195;-65
2023/07/29 16:27:04;;;;;;;4.17;2.83;;;;;;;;;;6260749;28;20182;-65
2023/07/29 16:30:05;;;;;;;2.50;2.30;;;;;;;;;;6268617;28;20226;-65
2023/07/29 16:33:06;;;;;;;2.87;2.50;;;;;;;;;;6289966;28;20214;-66
2023/07/29 16:36:07;;;;;;;2.43;2.23;;;;;;;;;;6255054;28;20189;-66
2023/07/29 16:39:08;;;;;;;3.43;2.63;;;;;;;;;;6254362;28;20193;-65
2023/07/29 16:42:09;;;;;;;3.33;2.87;;;;;;;;;;6239134;28;20209;-66
2023/07/29 16:45:11;;;;;;;2.57;2.37;;;;;;;;;;6247280;28;20185;-66
2023/07/29 16:48:12;;;;;;;3.30;2.80;;;;;;;;;;6256576;28;20190;-69
2023/07/29 16:51:13;;;;;;;2.30;2.10;;;;;;;;;;6247404;28;20276;-67
2023/07/29 16:54:17;;;;;;;3.03;2.53;;;;;;;;;;6239836;28;20212;-67
2023/07/29 16:57:18;;;;;;;4.53;2.63;;;;;;;;;;6249989;28;20205;-67
2023/07/29 17:00:19;;;;;;;2.60;2.40;;;;;;;;;;6266257;28;20194;-67
2023/07/29 17:03:20;;;;;;;2.80;2.60;;;;;;;;;;6251303;28;20218;-65
2023/07/29 17:06:21;;;;;;;2.67;2.47;;;;;;;;;;6247787;28;20204;-66
2023/07/29 17:09:22;;;;;;;3.30;2.60;;;;;;;;;;6249687;28;20255;-67
2023/07/29 17:12:24;;;;;;;2.90;2.53;;;;;;;;;;6246677;28;20213;-66
2023/07/29 17:15:25;;;;;;;3.23;2.60;;;;;;;;;;6256946;28;20200;-66
2023/07/29 17:18:26;;;;;;;2.77;2.43;;;;;;;;;;6239194;28;20195;-66
2023/07/29 17:21:27;;;;;;;2.40;2.20;;;;;;;;;;6270355;28;20183;-66
2023/07/29 17:24:28;;;;;;;3.03;2.47;;;;;;;;;;6277506;28;20229;-66
2023/07/29 17:27:29;;;;;;;2.67;2.40;;;;;;;;;;6255695;28;20212;-66
2023/07/29 17:30:34;;;;;;;2.30;2.10;;;;;;;;;;6252578;28;20252;-66
2023/07/29 17:33:36;;;;;;;2.90;2.70;;;;;;;;;;6261830;28;20209;-66
2023/07/29 17:36:37;;;;;;;3.33;2.57;;;;;;;;;;6247229;28;20182;-66
2023/07/29 17:39:41;;;;;;;2.80;2.50;;;;;;;;;;6248540;28;20190;-66
2023/07/29 17:42:42;;;;;;;3.17;2.70;;;;;;;;;;6237490;28;20329;-66
2023/07/29 17:45:43;;;;;;;2.90;2.63;;;;;;;;;;6243366;28;20213;-66